Time;durP1;ratioP1;P1;durP2;ratioP2;P2;SDS_P1;SDS_P2;PMS_P1;PMS_P2;Temp;Humidity;BMP_temperature;BMP_pressure;BME280_temperature;BME280_humidity;BME280_pressure;Samples;Min_cycle;Max_cycle;Signal;HPM_P1;HPM_P2
2021/10/07 00:01:43;;;;;;;3.97;0.90;;;10.70;82.30;;;;;;5073213;28;20036;-74
2021/10/07 00:04:08;;;;;;;3.88;0.70;;;10.70;82.70;;;;;;5071805;28;20081;-73
2021/10/07 00:06:34;;;;;;;1.55;0.55;;;10.70;82.90;;;;;;5073353;28;20024;-73
2021/10/07 00:09:00;;;;;;;3.20;0.70;;;10.70;82.90;;;;;;5073222;28;20099;-73
2021/10/07 00:11:25;;;;;;;3.35;0.90;;;10.70;82.80;;;;;;5073167;28;20020;-73
2021/10/07 00:13:51;;;;;;;1.98;0.90;;;10.80;82.80;;;;;;5073181;28;20032;-73
2021/10/07 00:16:16;;;;;;;2.72;0.70;;;10.80;83.10;;;;;;5072549;28;20021;-73
2021/10/07 00:18:42;;;;;;;3.33;0.73;;;10.80;83.20;;;;;;5072933;28;20103;-73
2021/10/07 00:21:08;;;;;;;1.63;0.50;;;10.80;83.20;;;;;;5072918;28;20100;-73
2021/10/07 00:23:41;;;;;;;2.25;0.75;;;10.80;83.40;;;;;;5073106;28;20040;-73
2021/10/07 00:26:07;;;;;;;2.08;0.50;;;10.70;83.50;;;;;;5072769;28;20017;-73
2021/10/07 00:28:33;;;;;;;1.63;0.70;;;10.70;84.00;;;;;;5073087;28;20028;-73
2021/10/07 00:31:01;;;;;;;2.97;0.65;;;10.70;84.30;;;;;;5072643;28;20098;-73
2021/10/07 00:33:35;;;;;;;1.63;0.60;;;10.70;84.30;;;;;;5071436;28;20060;-73
2021/10/07 00:39:05;;;;;;;2.95;0.60;;;10.70;84.30;;;;;;5070809;28;20419;-73
2021/10/07 00:41:41;;;;;;;2.17;0.73;;;10.60;84.30;;;;;;5073088;28;20020;-73
2021/10/07 00:44:08;;;;;;;1.20;0.80;;;10.70;84.60;;;;;;5072902;28;20050;-74
2021/10/07 00:46:55;;;;;;;2.83;0.90;;;10.70;84.40;;;;;;5072603;28;20024;-73
2021/10/07 00:49:22;;;;;;;4.97;0.70;;;10.60;84.30;;;;;;5072948;28;20020;-73
2021/10/07 00:51:48;;;;;;;2.85;0.77;;;10.50;84.40;;;;;;5072516;28;20024;-73
2021/10/07 00:54:17;;;;;;;2.05;0.90;;;10.40;84.50;;;;;;5072419;28;20048;-73
2021/10/07 00:56:43;;;;;;;3.30;0.88;;;10.40;85.00;;;;;;5072824;28;20021;-73
2021/10/07 00:59:09;;;;;;;3.78;0.70;;;10.40;84.80;;;;;;5072539;28;20055;-73
2021/10/07 01:01:35;;;;;;;1.73;0.60;;;10.40;84.70;;;;;;5072614;28;20488;-73
2021/10/07 01:04:00;;;;;;;2.45;0.60;;;10.50;84.80;;;;;;5071462;28;20028;-73
2021/10/07 01:06:26;;;;;;;2.60;0.90;;;10.40;84.70;;;;;;5072711;28;20465;-73
2021/10/07 01:08:51;;;;;;;3.40;0.88;;;10.40;84.90;;;;;;5072698;28;20480;-73
2021/10/07 01:11:17;;;;;;;1.88;0.60;;;10.40;84.90;;;;;;5072683;28;20025;-73
2021/10/07 01:13:43;;;;;;;4.82;0.80;;;10.50;85.10;;;;;;5072602;28;20413;-74
2021/10/07 01:16:08;;;;;;;1.83;0.75;;;10.40;85.40;;;;;;5072374;28;20037;-73
2021/10/07 01:18:34;;;;;;;2.75;0.70;;;10.40;85.60;;;;;;5072562;28;20381;-73
2021/10/07 01:21:00;;;;;;;3.45;0.90;;;10.40;85.70;;;;;;5072522;28;20032;-74
2021/10/07 01:23:26;;;;;;;2.30;0.85;;;10.40;85.70;;;;;;5072728;28;20068;-73
2021/10/07 01:25:52;;;;;;;2.95;0.80;;;10.40;85.70;;;;;;5072502;28;20126;-73
2021/10/07 01:28:18;;;;;;;2.97;0.80;;;10.40;86.10;;;;;;5072455;28;20047;-73
2021/10/07 01:30:44;;;;;;;4.22;1.20;;;10.40;86.00;;;;;;5072332;28;20123;-74
2021/10/07 01:33:09;;;;;;;1.27;0.65;;;10.40;86.00;;;;;;5072421;28;20039;-74
2021/10/07 01:35:35;;;;;;;2.10;0.95;;;10.50;85.90;;;;;;5072256;28;20020;-74
2021/10/07 01:38:02;;;;;;;2.30;0.90;;;10.50;85.70;;;;;;5072290;28;20027;-73
2021/10/07 01:40:27;;;;;;;2.65;0.80;;;10.50;85.70;;;;;;5072407;28;20025;-74
2021/10/07 01:42:53;;;;;;;1.80;0.70;;;10.50;85.80;;;;;;5072180;28;20036;-74
2021/10/07 01:45:19;;;;;;;1.58;0.70;;;10.50;85.60;;;;;;5072442;28;20485;-74
2021/10/07 01:47:45;;;;;;;3.67;0.90;;;10.50;85.50;;;;;;5076014;28;20103;-74
2021/10/07 01:50:12;;;;;;;1.98;0.50;;;10.50;85.50;;;;;;5075939;28;20020;-74
2021/10/07 01:52:39;;;;;;;2.35;0.80;;;10.50;85.50;;;;;;5075844;28;20020;-74
2021/10/07 01:55:07;;;;;;;1.55;0.80;;;10.50;85.80;;;;;;5075852;28;20017;-74
2021/10/07 01:57:33;;;;;;;4.93;0.90;;;10.50;85.90;;;;;;5075716;28;20452;-74
2021/10/07 01:59:58;;;;;;;3.45;1.13;;;10.40;85.80;;;;;;5075770;28;20052;-74
2021/10/07 02:02:24;;;;;;;2.05;0.88;;;10.40;85.90;;;;;;5075630;28;20036;-74
2021/10/07 02:04:49;;;;;;;2.42;0.90;;;10.40;86.10;;;;;;5075665;28;20031;-73
2021/10/07 02:07:15;;;;;;;3.00;0.98;;;10.40;86.10;;;;;;5075640;28;20039;-73
2021/10/07 02:09:40;;;;;;;1.67;0.93;;;10.40;86.10;;;;;;5075596;28;20099;-73
2021/10/07 02:12:06;;;;;;;2.05;0.77;;;10.40;85.90;;;;;;5075403;28;20024;-73
2021/10/07 02:14:33;;;;;;;3.70;1.25;;;10.40;85.90;;;;;;5075452;28;20020;-74
2021/10/07 02:16:58;;;;;;;8.35;2.08;;;10.40;85.90;;;;;;5075410;28;20039;-73
2021/10/07 02:19:24;;;;;;;3.70;2.00;;;10.40;86.00;;;;;;5074105;28;20029;-73
2021/10/07 02:21:50;;;;;;;4.70;2.25;;;10.40;86.20;;;;;;5075417;28;20024;-73
2021/10/07 02:24:16;;;;;;;4.35;2.10;;;10.30;86.20;;;;;;5075283;28;20384;-75
2021/10/07 02:26:42;;;;;;;7.15;3.45;;;10.30;86.50;;;;;;5075354;28;20024;-76
2021/10/07 02:29:08;;;;;;;6.18;2.70;;;10.20;86.60;;;;;;5075317;28;20113;-76
2021/10/07 02:31:33;;;;;;;5.05;2.88;;;10.20;86.70;;;;;;5076379;28;20072;-76
2021/10/07 02:33:59;;;;;;;3.30;2.20;;;10.20;87.00;;;;;;5079096;28;20029;-76
2021/10/07 02:36:25;;;;;;;3.95;2.50;;;10.20;86.90;;;;;;5075472;28;20017;-76
2021/10/07 02:38:51;;;;;;;4.13;2.20;;;10.20;86.70;;;;;;5074990;28;20501;-75
2021/10/07 02:41:17;;;;;;;7.60;2.28;;;10.20;86.50;;;;;;5074858;28;20016;-76
2021/10/07 02:43:42;;;;;;;4.70;2.30;;;10.20;86.50;;;;;;5074934;28;20032;-76
2021/10/07 02:46:08;;;;;;;3.65;2.08;;;10.30;86.60;;;;;;5074711;28;20388;-76
2021/10/07 02:48:34;;;;;;;4.32;2.42;;;10.30;86.50;;;;;;5073427;28;20086;-75
2021/10/07 02:50:59;;;;;;;3.50;2.25;;;10.30;86.40;;;;;;5074768;28;20545;-76
2021/10/07 02:53:27;;;;;;;5.88;3.33;;;10.30;86.30;;;;;;5074782;28;20056;-76
2021/10/07 02:55:53;;;;;;;13.55;4.97;;;10.30;86.40;;;;;;5074552;28;20024;-73
2021/10/07 02:58:18;;;;;;;6.72;4.38;;;10.30;86.70;;;;;;5073554;28;20116;-72
2021/10/07 03:00:44;;;;;;;7.20;4.13;;;10.30;86.80;;;;;;5074554;28;20063;-73
2021/10/07 03:03:10;;;;;;;5.43;3.78;;;10.30;87.00;;;;;;5074288;28;20030;-73
2021/10/07 03:05:36;;;;;;;5.63;2.42;;;10.30;87.20;;;;;;5072749;28;20029;-73
2021/10/07 03:08:01;;;;;;;4.22;2.13;;;10.30;87.30;;;;;;5074274;28;20098;-73
2021/10/07 03:10:27;;;;;;;4.85;1.83;;;10.40;87.10;;;;;;5074544;28;20043;-75
2021/10/07 03:12:53;;;;;;;3.75;1.75;;;10.30;87.00;;;;;;5074166;28;20492;-73
2021/10/07 03:15:18;;;;;;;2.70;1.20;;;10.30;87.00;;;;;;5074279;28;20025;-73
2021/10/07 03:17:44;;;;;;;3.97;1.17;;;10.30;87.10;;;;;;5074282;28;20047;-73
2021/10/07 03:20:10;;;;;;;2.13;1.00;;;10.30;87.10;;;;;;5073983;28;20016;-73
2021/10/07 03:22:36;;;;;;;4.30;1.42;;;10.30;87.20;;;;;;5073766;28;20037;-73
2021/10/07 03:25:03;;;;;;;2.20;1.40;;;10.30;87.30;;;;;;5074131;28;20025;-74
2021/10/07 03:27:29;;;;;;;4.22;1.33;;;10.30;87.20;;;;;;5074133;28;20024;-75
2021/10/07 03:29:54;;;;;;;4.20;1.65;;;10.30;87.30;;;;;;5073784;28;20485;-75
2021/10/07 03:32:20;;;;;;;2.72;1.45;;;10.30;87.40;;;;;;5073991;28;20039;-75
2021/10/07 03:34:46;;;;;;;3.60;1.50;;;10.30;87.80;;;;;;5073676;28;20035;-76
2021/10/07 03:37:12;;;;;;;2.15;1.10;;;10.30;87.50;;;;;;5073818;28;20036;-72
2021/10/07 03:39:37;;;;;;;1.95;1.27;;;10.20;87.40;;;;;;5073621;28;20113;-75
2021/10/07 03:42:03;;;;;;;1.73;1.00;;;10.20;87.40;;;;;;5073598;28;20061;-74
2021/10/07 03:44:29;;;;;;;1.85;0.80;;;10.20;87.40;;;;;;5073613;28;20021;-75
2021/10/07 03:46:54;;;;;;;2.05;1.10;;;10.20;87.10;;;;;;5073395;28;20028;-75
2021/10/07 03:49:20;;;;;;;2.67;0.82;;;10.20;87.10;;;;;;5073428;28;20346;-75
2021/10/07 03:51:45;;;;;;;2.55;1.20;;;10.10;87.40;;;;;;5073407;28;20024;-75
2021/10/07 03:54:11;;;;;;;2.92;1.00;;;10.10;87.30;;;;;;5073526;28;20400;-74
2021/10/07 03:56:39;;;;;;;1.88;1.10;;;10.10;87.30;;;;;;5073238;28;20110;-75
2021/10/07 03:59:05;;;;;;;1.92;1.35;;;10.10;87.40;;;;;;5073422;28;20020;-75
2021/10/07 04:01:30;;;;;;;4.25;1.65;;;10.10;87.50;;;;;;5073150;28;20017;-75
2021/10/07 04:03:56;;;;;;;5.40;1.90;;;10.20;87.50;;;;;;5073213;28;20489;-75
2021/10/07 04:06:21;;;;;;;4.05;1.85;;;10.20;87.40;;;;;;5072883;28;20552;-72
2021/10/07 04:08:47;;;;;;;4.47;1.83;;;10.30;87.30;;;;;;5072673;28;20029;-73
2021/10/07 04:11:13;;;;;;;3.42;1.38;;;10.20;87.20;;;;;;5073280;28;20104;-72
2021/10/07 04:13:38;;;;;;;4.50;1.20;;;10.30;87.10;;;;;;5073237;28;20100;-72
2021/10/07 04:16:04;;;;;;;2.67;1.05;;;10.30;87.00;;;;;;5071890;28;20021;-73
2021/10/07 04:18:29;;;;;;;3.53;0.85;;;10.30;87.90;;;;;;5073289;28;20032;-73
2021/10/07 04:20:55;;;;;;;1.40;1.02;;;10.40;86.90;;;;;;5073487;28;20024;-73
2021/10/07 04:23:20;;;;;;;8.45;1.52;;;10.40;86.70;;;;;;5073155;28;20040;-74
2021/10/07 04:25:46;;;;;;;2.35;0.70;;;10.40;86.60;;;;;;5072604;28;20111;-73
2021/10/07 04:28:12;;;;;;;3.65;1.20;;;10.40;86.60;;;;;;5073013;28;20426;-74
2021/10/07 04:30:38;;;;;;;2.35;1.10;;;10.40;86.60;;;;;;5072665;28;20512;-73
2021/10/07 04:33:06;;;;;;;1.10;0.75;;;10.40;86.80;;;;;;5072830;28;20023;-73
2021/10/07 04:35:31;;;;;;;2.80;1.55;;;10.40;86.80;;;;;;5072765;28;20036;-73
2021/10/07 04:37:58;;;;;;;3.55;1.75;;;10.30;86.70;;;;;;5072714;28;20028;-73
2021/10/07 04:40:25;;;;;;;9.25;4.30;;;10.30;86.70;;;;;;5072769;28;20051;-74
2021/10/07 04:42:51;;;;;;;14.98;8.07;;;10.40;86.60;;;;;;5072871;28;20116;-73
2021/10/07 04:45:17;;;;;;;9.93;6.78;;;10.40;86.40;;;;;;5071266;28;20056;-73
2021/10/07 04:47:43;;;;;;;8.88;4.28;;;10.30;86.30;;;;;;5072872;28;20441;-73
2021/10/07 04:50:09;;;;;;;5.28;2.55;;;10.30;86.20;;;;;;5072502;28;20033;-73
2021/10/07 04:52:35;;;;;;;5.82;2.22;;;10.30;86.10;;;;;;5072789;28;20112;-73
2021/10/07 04:55:01;;;;;;;4.30;1.73;;;10.30;86.10;;;;;;5072799;28;20108;-73
2021/10/07 04:57:26;;;;;;;3.88;1.30;;;10.20;86.10;;;;;;5072642;28;20451;-73
2021/10/07 04:59:52;;;;;;;3.80;1.30;;;10.30;86.30;;;;;;5072758;28;20021;-73
2021/10/07 05:02:17;;;;;;;4.30;1.30;;;10.30;86.50;;;;;;5072345;28;20033;-73
2021/10/07 05:04:43;;;;;;;2.03;0.85;;;10.30;86.50;;;;;;5072471;28;20377;-74
2021/10/07 05:07:09;;;;;;;2.33;1.13;;;10.30;86.60;;;;;;5072401;28;20028;-75
2021/10/07 05:09:35;;;;;;;3.60;1.67;;;10.30;86.70;;;;;;5072143;28;20374;-74
2021/10/07 05:12:00;;;;;;;4.97;2.50;;;10.30;86.80;;;;;;5072125;28;20029;-76
2021/10/07 05:14:26;;;;;;;5.05;2.20;;;10.30;86.90;;;;;;5072112;28;20048;-75
2021/10/07 05:16:51;;;;;;;6.95;2.50;;;10.30;87.10;;;;;;5071904;28;20082;-75
2021/10/07 05:19:17;;;;;;;4.78;3.17;;;10.30;87.20;;;;;;5072627;28;20082;-75
2021/10/07 05:21:42;;;;;;;5.63;3.72;;;10.30;87.40;;;;;;5074513;28;20040;-74
2021/10/07 05:24:08;;;;;;;6.13;3.70;;;10.30;87.80;;;;;;5076452;28;20090;-75
2021/10/07 05:26:33;;;;;;;4.80;2.95;;;10.30;87.60;;;;;;5075863;28;20028;-74
2021/10/07 05:28:59;;;;;;;3.05;2.22;;;10.30;87.50;;;;;;5075629;28;20036;-75
2021/10/07 05:31:24;;;;;;;1.88;1.40;;;10.30;87.50;;;;;;5073846;28;20129;-74
2021/10/07 05:33:50;;;;;;;2.38;1.30;;;10.30;87.40;;;;;;5075801;28;20028;-74
2021/10/07 05:36:17;;;;;;;1.70;1.33;;;10.30;87.20;;;;;;5075920;28;20032;-74
2021/10/07 05:38:42;;;;;;;4.75;2.13;;;10.30;87.00;;;;;;5075986;28;20024;-77
2021/10/07 05:41:08;;;;;;;4.43;1.60;;;10.40;86.80;;;;;;5075653;28;20025;-74
2021/10/07 05:43:33;;;;;;;4.88;1.30;;;10.40;86.80;;;;;;5075868;28;20082;-74
2021/10/07 05:45:59;;;;;;;2.47;1.50;;;10.40;86.60;;;;;;5076156;28;20040;-75
2021/10/07 05:48:25;;;;;;;2.35;1.95;;;10.40;86.80;;;;;;5075726;28;20033;-74
2021/10/07 05:50:51;;;;;;;3.72;1.67;;;10.40;86.90;;;;;;5075478;28;20021;-73
2021/10/07 05:53:16;;;;;;;9.15;2.97;;;10.40;87.20;;;;;;5075837;28;20040;-75
2021/10/07 05:55:42;;;;;;;5.38;3.80;;;10.40;87.10;;;;;;5074287;28;20036;-75
2021/10/07 05:58:07;;;;;;;3.67;2.20;;;10.40;87.10;;;;;;5075527;28;20028;-74
2021/10/07 06:00:33;;;;;;;4.50;2.30;;;10.30;86.90;;;;;;5075354;28;20021;-76
2021/10/07 06:02:59;;;;;;;5.20;2.50;;;10.30;87.10;;;;;;5074980;28;20036;-74
2021/10/07 06:05:24;;;;;;;3.45;2.22;;;10.30;87.10;;;;;;5075460;28;20116;-75
2021/10/07 06:07:50;;;;;;;3.67;2.58;;;10.30;87.20;;;;;;5075235;28;20104;-75
2021/10/07 06:10:16;;;;;;;3.47;2.55;;;10.30;87.40;;;;;;5075235;28;20108;-76
2021/10/07 06:12:43;;;;;;;6.57;3.40;;;10.40;87.50;;;;;;5073072;28;20021;-75
2021/10/07 06:15:09;;;;;;;5.47;3.40;;;10.40;87.30;;;;;;5074995;28;20035;-75
2021/10/07 06:17:34;;;;;;;4.68;2.83;;;10.40;87.10;;;;;;5075192;28;20016;-76
2021/10/07 06:20:06;;;;;;;5.40;2.65;;;10.40;87.10;;;;;;5074778;28;20050;-74
2021/10/07 06:22:32;;;;;;;8.75;2.90;;;10.50;87.20;;;;;;5074616;28;20043;-74
2021/10/07 06:24:58;;;;;;;3.67;2.20;;;10.50;87.10;;;;;;5074714;28;20031;-74
2021/10/07 06:27:24;;;;;;;5.40;2.70;;;10.50;86.90;;;;;;5074779;28;20024;-75
2021/10/07 06:29:50;;;;;;;4.50;2.15;;;10.60;86.70;;;;;;5074740;28;20094;-75
2021/10/07 06:32:16;;;;;;;4.38;1.90;;;10.60;86.70;;;;;;5074476;28;20104;-74
2021/10/07 06:34:42;;;;;;;1.88;1.35;;;10.70;86.50;;;;;;5074788;28;20111;-75
2021/10/07 06:37:08;;;;;;;3.08;1.83;;;10.70;86.10;;;;;;5074478;28;20579;-74
2021/10/07 06:39:33;;;;;;;3.85;1.90;;;10.70;86.10;;;;;;5074633;28;20077;-74
2021/10/07 06:41:59;;;;;;;4.75;2.40;;;10.70;86.20;;;;;;5074232;28;20040;-74
2021/10/07 06:44:25;;;;;;;4.88;2.35;;;10.60;86.60;;;;;;5074600;28;20373;-73
2021/10/07 06:46:50;;;;;;;5.35;2.50;;;10.60;86.80;;;;;;5074624;28;20032;-75
2021/10/07 06:49:16;;;;;;;2.70;1.73;;;10.70;86.80;;;;;;5074463;28;20029;-76
2021/10/07 06:51:41;;;;;;;2.15;1.80;;;10.70;86.20;;;;;;5074516;28;20035;-74
2021/10/07 06:54:07;;;;;;;3.50;1.63;;;10.70;86.30;;;;;;5074386;28;20025;-76
2021/10/07 06:56:33;;;;;;;2.72;1.85;;;10.70;86.50;;;;;;5074732;28;20021;-75
2021/10/07 06:58:58;;;;;;;4.97;2.25;;;10.80;86.30;;;;;;5073024;28;20043;-74
2021/10/07 07:01:26;;;;;;;3.58;1.58;;;10.80;86.10;;;;;;5074156;28;20028;-74
2021/10/07 07:03:53;;;;;;;6.25;2.47;;;10.90;86.00;;;;;;5074239;28;20154;-73
2021/10/07 07:06:19;;;;;;;4.68;2.58;;;10.90;84.70;;;;;;5072889;28;20543;-74
2021/10/07 07:08:45;;;;;;;3.55;1.77;;;10.80;85.50;;;;;;5074094;28;20029;-75
2021/10/07 07:11:11;;;;;;;6.13;2.30;;;10.80;84.90;;;;;;5074301;28;20024;-75
2021/10/07 07:13:37;;;;;;;4.57;2.42;;;10.80;85.10;;;;;;5073932;28;20021;-75
2021/10/07 07:16:03;;;;;;;8.43;2.35;;;10.70;85.50;;;;;;5074162;28;20077;-76
2021/10/07 07:18:29;;;;;;;6.50;3.45;;;10.70;85.70;;;;;;5074017;28;20107;-75
2021/10/07 07:20:55;;;;;;;8.32;2.92;;;10.60;85.60;;;;;;5073564;28;20480;-80
2021/10/07 07:23:20;;;;;;;11.07;3.40;;;10.90;91.40;;;;;;5073424;28;20418;-80
2021/10/07 07:25:46;;;;;;;8.45;3.50;;;11.20;90.40;;;;;;5074024;28;20234;-80
2021/10/07 07:28:12;;;;;;;9.00;3.38;;;11.40;90.00;;;;;;5072496;28;20511;-80
2021/10/07 07:30:37;;;;;;;3.63;2.17;;;11.70;88.50;;;;;;5073763;28;20052;-80
2021/10/07 07:33:03;;;;;;;4.40;2.20;;;12.00;85.80;;;;;;5073633;28;20031;-80
2021/10/07 07:35:33;;;;;;;4.07;2.25;;;12.00;81.30;;;;;;5073616;28;20025;-80
2021/10/07 07:38:00;;;;;;;4.18;2.13;;;12.20;80.50;;;;;;5072144;28;20024;-81
2021/10/07 07:40:27;;;;;;;3.35;2.00;;;12.50;78.40;;;;;;5072683;28;20036;-81
2021/10/07 07:42:52;;;;;;;3.85;1.85;;;12.60;78.00;;;;;;5073258;28;20043;-80
2021/10/07 07:45:18;;;;;;;4.25;1.90;;;12.90;77.20;;;;;;5071786;28;20028;-81
2021/10/07 07:47:44;;;;;;;3.35;1.90;;;13.00;76.50;;;;;;5073440;28;20078;-80
2021/10/07 07:50:11;;;;;;;2.05;1.27;;;13.00;76.00;;;;;;5073488;28;20722;-81
2021/10/07 07:52:37;;;;;;;5.55;1.73;;;13.00;75.20;;;;;;5073502;28;20033;-81
2021/10/07 07:55:04;;;;;;;1.55;1.27;;;12.90;75.50;;;;;;5073142;28;20012;-81
2021/10/07 07:57:29;;;;;;;5.90;2.00;;;12.90;74.80;;;;;;5071960;28;20032;-81
2021/10/07 07:59:55;;;;;;;2.05;1.65;;;13.00;75.10;;;;;;5073212;28;20351;-76
2021/10/07 08:02:20;;;;;;;2.47;1.42;;;13.10;73.30;;;;;;5073126;28;20029;-75
2021/10/07 08:04:46;;;;;;;4.35;1.90;;;12.80;73.20;;;;;;5073376;28;20029;-75
2021/10/07 08:07:13;;;;;;;3.78;1.48;;;12.60;73.70;;;;;;5073339;28;20082;-74
2021/10/07 08:09:43;;;;;;;2.28;1.20;;;12.50;74.00;;;;;;5073002;28;20020;-74
2021/10/07 08:12:12;;;;;;;2.58;1.33;;;12.30;74.10;;;;;;5073153;28;20074;-75
2021/10/07 08:14:41;;;;;;;4.10;1.88;;;12.00;74.30;;;;;;5073327;28;20383;-74
2021/10/07 08:17:07;;;;;;;3.05;1.10;;;11.70;74.80;;;;;;5073062;28;20063;-74
2021/10/07 08:19:33;;;;;;;3.20;1.60;;;11.80;75.10;;;;;;5073243;28;20043;-74
2021/10/07 08:21:58;;;;;;;2.58;1.63;;;11.90;75.00;;;;;;5071637;28;20040;-74
2021/10/07 08:24:24;;;;;;;3.80;1.48;;;11.90;74.50;;;;;;5073177;28;20037;-75
2021/10/07 08:26:50;;;;;;;2.67;1.40;;;11.80;75.30;;;;;;5072986;28;20388;-75
2021/10/07 08:29:16;;;;;;;2.33;1.50;;;11.80;74.90;;;;;;5072804;28;20028;-75
2021/10/07 08:31:41;;;;;;;4.07;1.80;;;11.80;75.10;;;;;;5072952;28;20047;-74
2021/10/07 08:34:07;;;;;;;6.90;2.00;;;11.70;77.10;;;;;;5072396;28;20557;-75
2021/10/07 08:36:34;;;;;;;3.28;1.60;;;11.80;77.70;;;;;;5072874;28;20032;-74
2021/10/07 08:38:59;;;;;;;3.97;2.35;;;11.90;76.50;;;;;;5072866;28;20122;-74
2021/10/07 08:41:25;;;;;;;7.18;3.58;;;11.80;75.90;;;;;;5072750;28;20025;-73
2021/10/07 08:43:51;;;;;;;5.95;2.53;;;11.60;76.90;;;;;;5072571;28;20040;-73
2021/10/07 08:46:19;;;;;;;3.28;1.80;;;11.60;77.80;;;;;;5073281;28;20023;-73
2021/10/07 08:48:44;;;;;;;3.80;1.67;;;11.70;77.70;;;;;;5072747;28;20385;-74
2021/10/07 08:51:10;;;;;;;3.30;1.60;;;11.80;77.60;;;;;;5072619;28;20028;-73
2021/10/07 08:53:36;;;;;;;4.07;1.70;;;11.80;77.30;;;;;;5072666;28;20032;-74
2021/10/07 08:56:05;;;;;;;3.17;1.80;;;11.90;77.10;;;;;;5074722;28;20050;-73
2021/10/07 08:58:31;;;;;;;3.05;2.05;;;12.00;76.60;;;;;;5076377;28;20433;-75
2021/10/07 09:00:56;;;;;;;6.25;2.17;;;11.90;76.60;;;;;;5076737;28;20029;-74
2021/10/07 09:03:24;;;;;;;5.53;1.75;;;11.90;76.30;;;;;;5076570;28;20060;-74
2021/10/07 09:06:08;;;;;;;5.88;2.00;;;11.80;76.60;;;;;;5076607;28;20025;-73
2021/10/07 09:08:42;;;;;;;6.28;2.20;;;11.70;77.60;;;;;;5076457;28;20507;-73
2021/10/07 09:11:08;;;;;;;3.35;1.88;;;11.70;78.00;;;;;;5076474;28;20101;-74
2021/10/07 09:13:36;;;;;;;3.63;2.05;;;11.90;76.90;;;;;;5076719;28;20397;-74
2021/10/07 09:16:02;;;;;;;3.38;1.90;;;12.00;76.80;;;;;;5076148;28;20020;-73
2021/10/07 09:18:29;;;;;;;2.90;1.58;;;12.20;76.50;;;;;;5076636;28;20032;-74
2021/10/07 09:20:57;;;;;;;1.58;1.38;;;12.40;76.20;;;;;;5075062;28;20025;-74
2021/10/07 09:23:33;;;;;;;3.58;1.90;;;12.50;75.20;;;;;;5076243;28;20036;-74
2021/10/07 09:26:09;;;;;;;2.00;1.42;;;12.70;74.40;;;;;;5076043;28;20103;-74
2021/10/07 09:28:53;;;;;;;;;;;12.80;73.60;;;;;;5076637;28;20032;-74
2021/10/07 09:31:33;;;;;;;3.80;1.98;;;12.70;71.00;;;;;;5076198;28;20269;-74
2021/10/07 09:34:02;;;;;;;6.10;2.13;;;12.60;71.80;;;;;;5076189;28;20021;-75
2021/10/07 09:36:30;;;;;;;4.63;1.80;;;12.60;72.90;;;;;;5076055;28;20431;-74
2021/10/07 09:38:56;;;;;;;7.57;2.38;;;12.60;72.90;;;;;;5076162;28;20021;-74
2021/10/07 09:41:25;;;;;;;4.57;1.80;;;12.60;72.60;;;;;;5076007;28;20035;-74
2021/10/07 09:43:59;;;;;;;3.20;2.00;;;12.60;72.70;;;;;;5075615;28;20033;-75
2021/10/07 09:46:43;;;;;;;4.95;2.33;;;12.60;72.70;;;;;;5074442;28;20068;-75
2021/10/07 09:49:11;;;;;;;4.45;2.03;;;12.40;73.90;;;;;;5075493;28;20029;-74
2021/10/07 09:51:45;;;;;;;3.80;2.60;;;12.40;74.10;;;;;;5075673;28;20469;-74
2021/10/07 09:54:14;;;;;;;6.55;2.33;;;12.60;73.80;;;;;;5075375;28;20147;-74
2021/10/07 09:56:40;;;;;;;6.38;2.42;;;12.70;73.60;;;;;;5075262;28;20036;-74
2021/10/07 09:59:08;;;;;;;9.25;3.50;;;12.80;73.20;;;;;;5075599;28;20017;-74
2021/10/07 10:01:38;;;;;;;7.72;3.42;;;12.80;73.20;;;;;;5075929;28;20038;-74
2021/10/07 10:04:03;;;;;;;3.90;2.00;;;12.60;73.00;;;;;;5074406;28;20067;-74
2021/10/07 10:06:30;;;;;;;4.72;2.20;;;12.60;73.20;;;;;;5072879;28;20043;-75
2021/10/07 10:08:55;;;;;;;5.13;2.45;;;12.60;72.50;;;;;;5074894;28;20079;-74
2021/10/07 10:11:21;;;;;;;2.83;1.92;;;12.60;73.30;;;;;;5075075;28;20111;-74
2021/10/07 10:13:48;;;;;;;2.65;1.90;;;12.70;73.50;;;;;;5075291;28;20016;-74
2021/10/07 10:16:16;;;;;;;3.15;1.67;;;12.80;73.40;;;;;;5075481;28;20045;-74
2021/10/07 10:18:52;;;;;;;3.40;1.65;;;13.10;73.00;;;;;;5075956;28;20096;-74
2021/10/07 10:21:18;;;;;;;3.90;2.60;;;13.20;72.70;;;;;;5082490;28;20131;-74
2021/10/07 10:23:45;;;;;;;3.85;2.30;;;13.30;72.10;;;;;;5075159;28;20381;-74
2021/10/07 10:26:12;;;;;;;4.68;2.10;;;13.20;71.60;;;;;;5075125;28;20540;-74
2021/10/07 10:28:41;;;;;;;5.38;2.17;;;13.00;73.10;;;;;;5075333;28;20035;-74
2021/10/07 10:31:13;;;;;;;6.43;2.50;;;13.00;72.30;;;;;;5074927;28;20080;-74
2021/10/07 10:33:50;;;;;;;7.60;3.63;;;13.00;72.90;;;;;;5074631;28;20025;-74
2021/10/07 10:36:38;;;;;;;7.00;2.30;;;12.90;72.80;;;;;;5074900;28;20039;-74
2021/10/07 10:39:14;;;;;;;9.82;2.83;;;12.80;73.20;;;;;;5074714;28;20530;-75
2021/10/07 10:41:43;;;;;;;;;;;12.80;73.10;;;;;;5075223;28;20408;-73
2021/10/07 10:44:26;;;;;;;4.50;3.17;;;12.80;73.10;;;;;;5074653;28;19913;-73
2021/10/07 10:47:07;;;;;;;4.47;2.75;;;12.90;73.90;;;;;;5074270;28;20047;-72
2021/10/07 10:49:51;;;;;;;5.80;2.72;;;13.00;73.60;;;;;;5074022;28;20051;-78
2021/10/07 10:52:22;;;;;;;3.28;2.40;;;13.30;85.50;;;;;;5073915;28;20493;-76
2021/10/07 10:55:09;;;;;;;3.75;2.47;;;13.60;84.60;;;;;;5073922;28;20020;-76
2021/10/07 10:57:36;;;;;;;3.45;2.25;;;13.70;81.60;;;;;;5073300;28;20051;-77
2021/10/07 11:00:16;;;;;;;4.05;1.77;;;13.90;75.00;;;;;;5073933;28;20511;-77
2021/10/07 11:02:44;;;;;;;1.65;1.20;;;14.00;76.20;;;;;;5073847;28;20040;-73
2021/10/07 11:05:20;;;;;;;1.20;0.85;;;13.90;72.40;;;;;;5073935;28;20032;-73
2021/10/07 11:07:47;;;;;;;2.22;1.50;;;13.80;68.80;;;;;;5073850;28;20437;-73
2021/10/07 11:10:28;;;;;;;1.42;0.68;;;13.80;67.70;;;;;;5073329;28;20428;-73
2021/10/07 11:12:56;;;;;;;3.90;1.98;;;13.80;67.40;;;;;;5073539;28;20505;-73
2021/10/07 11:15:25;;;;;;;5.25;4.00;;;13.80;67.30;;;;;;5073878;28;20058;-73
2021/10/07 11:17:52;;;;;;;3.85;2.30;;;13.80;66.90;;;;;;5073343;28;20028;-73
2021/10/07 11:20:22;;;;;;;3.20;1.02;;;13.80;66.50;;;;;;5073334;28;20028;-73
2021/10/07 11:23:11;;;;;;;2.60;1.38;;;13.90;65.80;;;;;;5073888;28;20062;-73
2021/10/07 11:25:50;;;;;;;5.28;1.77;;;14.00;65.70;;;;;;5073917;28;20035;-73
2021/10/07 11:28:23;;;;;;;1.48;0.77;;;14.20;64.90;;;;;;5073792;28;20025;-73
2021/10/07 11:30:49;;;;;;;1.02;0.80;;;14.40;64.00;;;;;;5073581;28;20140;-73
2021/10/07 11:33:14;;;;;;;1.63;0.80;;;14.60;63.10;;;;;;5073674;28;20043;-73
2021/10/07 11:35:41;;;;;;;0.93;0.85;;;14.70;62.80;;;;;;5073582;28;20032;-74
2021/10/07 11:38:12;;;;;;;2.67;1.00;;;14.80;63.00;;;;;;5073624;28;20024;-73
2021/10/07 11:40:43;;;;;;;1.23;0.98;;;15.00;63.10;;;;;;5073360;28;20021;-73
2021/10/07 11:43:19;;;;;;;1.42;1.00;;;15.00;61.90;;;;;;5073179;28;20036;-73
2021/10/07 11:45:48;;;;;;;2.45;1.00;;;15.20;61.50;;;;;;5072796;28;20433;-73
2021/10/07 11:48:14;;;;;;;1.05;0.90;;;15.30;60.90;;;;;;5072748;28;20116;-73
2021/10/07 11:50:47;;;;;;;2.70;0.77;;;15.50;58.60;;;;;;5073049;28;20142;-73
2021/10/07 11:53:16;;;;;;;1.08;0.40;;;15.70;56.90;;;;;;5072981;28;20039;-73
2021/10/07 11:55:47;;;;;;;1.42;1.10;;;16.10;54.20;;;;;;5072906;28;20389;-73
2021/10/07 11:58:13;;;;;;;2.97;0.90;;;16.30;52.50;;;;;;5072632;28;20036;-73
2021/10/07 12:00:50;;;;;;;2.53;0.88;;;16.70;52.70;;;;;;5072935;28;20021;-73
2021/10/07 12:03:18;;;;;;;1.27;0.70;;;16.90;52.00;;;;;;5072810;28;20032;-75
2021/10/07 12:05:46;;;;;;;1.25;0.57;;;16.90;51.90;;;;;;5072572;28;20481;-74
2021/10/07 12:08:17;;;;;;;2.53;0.60;;;16.70;53.50;;;;;;5072731;28;20056;-73
2021/10/07 12:10:52;;;;;;;2.03;0.80;;;16.70;52.80;;;;;;5073489;28;20077;-73
2021/10/07 12:13:27;;;;;;;1.77;0.75;;;16.40;53.20;;;;;;5072870;28;20050;-73
2021/10/07 12:15:54;;;;;;;;;;;15.90;56.20;;;;;;5071753;28;20032;-73
2021/10/07 12:18:23;;;;;;;2.75;0.98;;;15.90;57.30;;;;;;5072648;28;19912;-73
2021/10/07 12:21:04;;;;;;;2.17;0.98;;;15.70;58.00;;;;;;5071197;28;20025;-73
2021/10/07 12:23:31;;;;;;;1.85;1.10;;;15.40;58.70;;;;;;5072450;28;20036;-73
2021/10/07 12:26:01;;;;;;;1.00;0.90;;;15.10;59.80;;;;;;5072597;28;20488;-73
2021/10/07 12:28:27;;;;;;;4.07;1.38;;;15.00;60.40;;;;;;5072411;28;20044;-73
2021/10/07 12:30:53;;;;;;;1.65;1.52;;;14.90;61.20;;;;;;5071922;28;20043;-73
2021/10/07 12:33:19;;;;;;;2.85;1.52;;;14.80;61.20;;;;;;5072516;28;20380;-74
2021/10/07 12:36:05;;;;;;;2.72;1.20;;;14.50;61.40;;;;;;5072231;28;20020;-74
2021/10/07 12:38:47;;;;;;;1.98;1.30;;;14.50;62.30;;;;;;5072175;28;20251;-73
2021/10/07 12:41:13;;;;;;;1.77;1.40;;;14.40;62.40;;;;;;5071586;28;20091;-74
2021/10/07 12:43:56;;;;;;;3.30;1.67;;;14.20;63.40;;;;;;5071974;28;20072;-74
2021/10/07 12:46:22;;;;;;;2.00;1.48;;;14.00;64.60;;;;;;5072067;28;20116;-74
2021/10/07 12:48:51;;;;;;;3.45;1.95;;;13.90;65.30;;;;;;5072101;28;20017;-73
2021/10/07 12:51:19;;;;;;;3.83;2.20;;;13.90;65.80;;;;;;5071910;28;20025;-74
2021/10/07 12:53:45;;;;;;;4.35;1.50;;;13.90;65.80;;;;;;5072080;28;20036;-73